Time;durP1;ratioP1;P1;durP2;ratioP2;P2;SDS_P1;SDS_P2;PMS_P1;PMS_P2;Temp;Humidity;BMP_temperature;BMP_pressure;BME280_temperature;BME280_humidity;BME280_pressure;Samples;Min_cycle;Max_cycle;Signal;HPM_P1;HPM_P2
2022/11/12 00:00:54;;;;;;;6.47;4.07;;;7.70;99.90;;;;;;4159373;28;20454;-76
2022/11/12 00:02:55;;;;;;;8.40;4.10;;;7.70;99.90;;;;;;4156963;28;22002;-75
2022/11/12 00:04:57;;;;;;;7.07;3.73;;;7.70;99.90;;;;;;4156678;28;20465;-76
2022/11/12 00:06:59;;;;;;;7.57;3.90;;;7.70;99.90;;;;;;4158390;28;20568;-75
2022/11/12 00:09:01;;;;;;;6.53;3.60;;;7.70;99.90;;;;;;4155638;28;20472;-75
2022/11/12 00:11:06;;;;;;;7.43;3.77;;;7.70;99.90;;;;;;4156925;28;20530;-75
2022/11/12 00:13:08;;;;;;;11.43;4.07;;;7.70;99.90;;;;;;4157983;28;20453;-76
2022/11/12 00:15:10;;;;;;;9.03;4.70;;;7.70;99.90;;;;;;4156557;28;20458;-75
2022/11/12 00:17:12;;;;;;;8.30;4.40;;;7.70;99.90;;;;;;4161179;28;20616;-75
2022/11/12 00:19:14;;;;;;;9.63;4.47;;;7.70;99.90;;;;;;4163016;28;20543;-75
2022/11/12 00:21:17;;;;;;;6.90;3.87;;;7.60;99.90;;;;;;4161882;28;20874;-75
2022/11/12 00:23:19;;;;;;;7.70;4.27;;;7.60;99.90;;;;;;4161566;28;20460;-75
2022/11/12 00:25:21;;;;;;;7.77;4.00;;;7.60;99.90;;;;;;4161568;28;20495;-76
2022/11/12 00:27:24;;;;;;;7.00;4.47;;;7.60;99.90;;;;;;4161973;28;20484;-75
2022/11/12 00:29:26;;;;;;;8.97;4.20;;;7.60;99.90;;;;;;4150393;28;20462;-76
2022/11/12 00:31:28;;;;;;;7.83;3.90;;;7.60;99.90;;;;;;4162006;28;20960;-75
2022/11/12 00:33:30;;;;;;;8.67;4.00;;;7.60;99.90;;;;;;4157986;28;20464;-76
2022/11/12 00:35:32;;;;;;;10.70;4.23;;;7.60;99.90;;;;;;4160274;28;20465;-76
2022/11/12 00:37:34;;;;;;;7.77;4.60;;;7.60;99.90;;;;;;4162413;28;20496;-75
2022/11/12 00:39:36;;;;;;;6.63;3.97;;;7.60;99.90;;;;;;4163176;28;20463;-75
2022/11/12 00:41:38;;;;;;;7.57;4.00;;;7.50;99.90;;;;;;4161639;28;20453;-76
2022/11/12 00:43:41;;;;;;;6.07;3.90;;;7.50;99.90;;;;;;4166230;28;20489;-76
2022/11/12 00:45:43;;;;;;;6.17;3.90;;;7.50;99.90;;;;;;4157330;28;20496;-76
2022/11/12 00:47:45;;;;;;;7.83;4.23;;;7.50;99.90;;;;;;4151572;28;20543;-76
2022/11/12 00:49:47;;;;;;;8.73;4.20;;;7.50;99.90;;;;;;4159938;28;20457;-75
2022/11/12 00:51:52;;;;;;;11.63;4.83;;;7.50;99.90;;;;;;4162087;28;20494;-76
2022/11/12 00:53:54;;;;;;;7.00;4.60;;;7.40;99.90;;;;;;4159688;28;20480;-76
2022/11/12 00:56:01;;;;;;;8.93;4.70;;;7.40;99.90;;;;;;4152767;28;20516;-76
2022/11/12 00:58:03;;;;;;;6.87;4.20;;;7.40;99.90;;;;;;4158499;28;20464;-76
2022/11/12 01:00:08;;;;;;;7.90;4.10;;;7.40;99.90;;;;;;4154564;28;20465;-75
2022/11/12 01:02:10;;;;;;;7.03;3.63;;;7.40;99.90;;;;;;4157716;28;20473;-75
2022/11/12 01:04:12;;;;;;;9.13;4.03;;;7.40;99.90;;;;;;4157154;28;20464;-75
2022/11/12 01:06:16;;;;;;;6.93;4.00;;;7.40;99.90;;;;;;4158104;28;20472;-75
2022/11/12 01:08:18;;;;;;;6.17;4.10;;;7.40;99.90;;;;;;4162487;28;20546;-76
2022/11/12 01:10:20;;;;;;;9.60;4.00;;;7.40;99.90;;;;;;4158875;28;20466;-75
2022/11/12 01:12:22;;;;;;;8.80;4.10;;;7.30;99.90;;;;;;4159605;28;20461;-75
2022/11/12 01:14:24;;;;;;;6.97;3.77;;;7.30;99.90;;;;;;4161055;28;20453;-75
2022/11/12 01:16:29;;;;;;;7.47;4.03;;;7.30;99.90;;;;;;4157016;28;20464;-75
2022/11/12 01:18:31;;;;;;;6.27;3.50;;;7.30;99.90;;;;;;4160538;28;21130;-76
2022/11/12 01:20:33;;;;;;;8.80;3.90;;;7.30;99.90;;;;;;4161041;28;20502;-76
2022/11/12 01:22:35;;;;;;;7.47;3.90;;;7.30;99.90;;;;;;4160894;28;20483;-76
2022/11/12 01:24:36;;;;;;;6.40;3.47;;;7.30;99.90;;;;;;4162355;28;20537;-75
2022/11/12 01:26:39;;;;;;;6.37;3.60;;;7.30;99.90;;;;;;4157800;28;20472;-75
2022/11/12 01:28:41;;;;;;;10.17;4.20;;;7.30;99.90;;;;;;4157537;28;20938;-75
2022/11/12 01:30:46;;;;;;;7.10;3.40;;;7.20;99.90;;;;;;4157751;28;20460;-75
2022/11/12 01:32:49;;;;;;;5.50;3.77;;;7.30;99.90;;;;;;4161948;28;20971;-75
2022/11/12 01:34:52;;;;;;;6.33;3.63;;;7.20;99.90;;;;;;4160798;28;20558;-75
2022/11/12 01:36:54;;;;;;;6.17;3.30;;;7.30;99.90;;;;;;4158647;28;21107;-75
2022/11/12 01:38:56;;;;;;;7.30;3.67;;;7.20;99.90;;;;;;4162001;28;20474;-75
2022/11/12 01:40:58;;;;;;;9.07;4.07;;;7.20;99.90;;;;;;4160536;28;20468;-75
2022/11/12 01:42:59;;;;;;;6.80;3.60;;;7.20;99.90;;;;;;4158091;28;20474;-75
2022/11/12 01:45:01;;;;;;;5.20;3.10;;;7.30;99.90;;;;;;4158569;28;20460;-75
2022/11/12 01:47:11;;;;;;;6.70;3.70;;;7.20;99.90;;;;;;4161281;28;21075;-76
2022/11/12 01:49:21;;;;;;;7.77;3.77;;;7.20;99.90;;;;;;4153900;28;20563;-75
2022/11/12 01:51:25;;;;;;;6.90;3.77;;;7.30;99.90;;;;;;4158133;28;20922;-75
2022/11/12 01:53:31;;;;;;;7.90;4.13;;;7.20;99.90;;;;;;4158179;28;20539;-75
2022/11/12 01:55:37;;;;;;;7.20;3.90;;;7.20;99.90;;;;;;4158590;28;20506;-76
2022/11/12 01:57:44;;;;;;;9.50;4.30;;;7.20;99.90;;;;;;4160535;28;20487;-75
2022/11/12 01:59:50;;;;;;;8.63;3.77;;;7.20;99.90;;;;;;4159042;28;20456;-75
2022/11/12 02:01:52;;;;;;;6.83;3.83;;;7.20;99.90;;;;;;4158110;28;20460;-75
2022/11/12 02:03:54;;;;;;;7.63;3.97;;;7.20;99.90;;;;;;4157412;28;21038;-74
2022/11/12 02:06:00;;;;;;;7.03;4.00;;;7.10;99.90;;;;;;4160617;28;21023;-75
2022/11/12 02:08:04;;;;;;;6.67;3.50;;;7.20;99.90;;;;;;4158969;28;20511;-76
2022/11/12 02:10:08;;;;;;;5.97;3.27;;;7.30;99.90;;;;;;4155124;28;20495;-75
2022/11/12 02:13:56;;;;;;;6.20;3.13;;;7.10;99.90;;;;;;4160506;28;20539;-76
2022/11/12 02:14:32;;;;;;;5.10;3.17;;;7.10;99.90;;;;;;4156794;28;20829;-75
2022/11/12 02:16:36;;;;;;;6.47;3.57;;;7.10;99.90;;;;;;4155566;28;20471;-75
2022/11/12 02:18:38;;;;;;;5.47;3.27;;;7.10;99.90;;;;;;4160795;28;20468;-75
2022/11/12 02:20:40;;;;;;;7.33;3.53;;;7.00;99.90;;;;;;4161810;28;20462;-76
2022/11/12 02:22:44;;;;;;;8.00;3.93;;;7.00;99.90;;;;;;4156308;28;20457;-75
2022/11/12 02:24:46;;;;;;;7.67;4.70;;;7.00;99.90;;;;;;4159837;28;20480;-75
2022/11/12 02:26:51;;;;;;;9.03;4.10;;;7.00;99.90;;;;;;4161145;28;20494;-75
2022/11/12 02:28:53;;;;;;;7.17;3.90;;;7.00;99.90;;;;;;4162007;28;20847;-75
2022/11/12 02:30:54;;;;;;;7.77;3.80;;;7.00;99.90;;;;;;4159868;28;21061;-75
2022/11/12 02:32:56;;;;;;;5.37;3.50;;;7.00;99.90;;;;;;4163243;28;20465;-75
2022/11/12 02:34:58;;;;;;;7.07;3.57;;;7.00;99.90;;;;;;4158131;28;20463;-74
2022/11/12 02:37:00;;;;;;;5.27;3.57;;;7.00;99.90;;;;;;4159717;28;20504;-75
2022/11/12 02:39:03;;;;;;;6.10;3.70;;;6.90;99.90;;;;;;4158488;28;20556;-75
2022/11/12 02:41:05;;;;;;;6.33;3.57;;;6.90;99.90;;;;;;4162480;28;20456;-75
2022/11/12 02:43:07;;;;;;;8.47;3.90;;;6.90;99.90;;;;;;4161008;28;20466;-75
2022/11/12 02:45:10;;;;;;;7.30;3.63;;;6.90;99.90;;;;;;4162539;28;20460;-75
2022/11/12 02:47:12;;;;;;;5.77;3.70;;;6.90;99.90;;;;;;4162478;28;21006;-75
2022/11/12 02:49:14;;;;;;;5.60;3.57;;;6.90;99.90;;;;;;4158069;28;20570;-76
2022/11/12 02:51:16;;;;;;;7.80;4.23;;;6.90;99.90;;;;;;4159075;28;20496;-75
2022/11/12 02:53:18;;;;;;;6.97;3.73;;;6.90;99.90;;;;;;4161335;28;20912;-76
2022/11/12 02:55:21;;;;;;;5.37;3.03;;;6.90;99.90;;;;;;4160463;28;20524;-76
2022/11/12 02:57:23;;;;;;;5.60;3.17;;;6.90;99.90;;;;;;4163383;28;21009;-76
2022/11/12 02:59:25;;;;;;;6.60;3.50;;;6.90;99.90;;;;;;4160125;28;20910;-75
2022/11/12 03:01:27;;;;;;;7.50;3.50;;;6.80;99.90;;;;;;4162449;28;20522;-75
2022/11/12 03:03:29;;;;;;;6.23;3.40;;;6.80;99.90;;;;;;4163172;28;21030;-75
2022/11/12 03:05:32;;;;;;;5.53;3.30;;;6.80;99.90;;;;;;4156243;28;20463;-75
2022/11/12 03:07:34;;;;;;;5.07;3.30;;;6.80;99.90;;;;;;4160524;28;20473;-75
2022/11/12 03:09:36;;;;;;;5.00;3.30;;;6.80;99.90;;;;;;4161851;28;21105;-76
2022/11/12 03:11:39;;;;;;;6.73;3.47;;;6.70;99.90;;;;;;4161919;28;20538;-75
2022/11/12 03:13:42;;;;;;;5.33;3.17;;;6.70;99.90;;;;;;4163114;28;20997;-75
2022/11/12 03:15:44;;;;;;;5.50;3.33;;;6.70;99.90;;;;;;4162491;28;20495;-76
2022/11/12 03:17:46;;;;;;;4.93;3.30;;;6.80;99.90;;;;;;4161048;28;20881;-76
2022/11/12 03:19:47;;;;;;;5.67;2.90;;;6.70;99.90;;;;;;4160818;28;20459;-75
2022/11/12 03:21:49;;;;;;;4.40;3.17;;;6.70;99.90;;;;;;4156308;28;20495;-75
2022/11/12 03:23:51;;;;;;;6.90;3.70;;;6.70;99.90;;;;;;4160238;28;20530;-75
2022/11/12 03:25:53;;;;;;;6.93;3.90;;;6.60;99.90;;;;;;4161216;28;20506;-75
2022/11/12 03:28:01;;;;;;;5.63;3.10;;;6.60;99.90;;;;;;4161406;28;20476;-73
2022/11/12 03:30:03;;;;;;;5.33;3.40;;;6.60;99.90;;;;;;4160506;28;20448;-75
2022/11/12 03:32:05;;;;;;;7.40;4.00;;;6.60;99.90;;;;;;4160263;28;20455;-75
2022/11/12 03:34:07;;;;;;;6.00;3.20;;;6.60;99.90;;;;;;4161656;28;20471;-76
2022/11/12 03:36:09;;;;;;;5.40;3.53;;;6.60;99.90;;;;;;4162454;28;20459;-75
2022/11/12 03:38:11;;;;;;;4.20;2.83;;;6.60;99.90;;;;;;4163747;28;20920;-76
2022/11/12 03:40:13;;;;;;;5.47;2.87;;;6.60;99.90;;;;;;4163357;28;21039;-76
2022/11/12 03:42:15;;;;;;;6.13;3.10;;;6.50;99.90;;;;;;4161553;28;20983;-75
2022/11/12 03:44:19;;;;;;;4.80;2.63;;;6.50;99.90;;;;;;4162565;28;20472;-76
2022/11/12 03:46:21;;;;;;;5.67;2.90;;;6.50;99.90;;;;;;4164105;28;20455;-75
2022/11/12 03:48:23;;;;;;;4.00;2.83;;;6.50;99.90;;;;;;4162872;28;20478;-76
2022/11/12 03:50:27;;;;;;;5.20;2.97;;;6.40;99.90;;;;;;4160226;28;20467;-76
2022/11/12 03:52:29;;;;;;;5.60;2.83;;;6.40;99.90;;;;;;4160594;28;20542;-75
2022/11/12 03:54:31;;;;;;;7.47;3.20;;;6.40;99.90;;;;;;4163329;28;20488;-76
2022/11/12 03:56:33;;;;;;;4.27;2.87;;;6.40;99.90;;;;;;4160767;28;21014;-75
2022/11/12 03:58:35;;;;;;;6.83;3.07;;;6.30;99.90;;;;;;4161868;28;20440;-76
2022/11/12 04:00:38;;;;;;;5.97;3.40;;;6.30;99.90;;;;;;4160573;28;20472;-75
2022/11/12 04:02:40;;;;;;;6.03;3.13;;;6.30;99.90;;;;;;4159179;28;20551;-76
2022/11/12 04:09:21;;;;;;;5.13;3.07;;;6.30;99.90;;;;;;4157334;28;20491;-76
2022/11/12 04:11:23;;;;;;;5.73;3.37;;;6.20;99.90;;;;;;4166605;28;20485;-75
2022/11/12 04:13:27;;;;;;;4.53;2.87;;;6.20;99.90;;;;;;4160220;28;20486;-75
2022/11/12 04:15:29;;;;;;;6.00;2.97;;;6.20;99.90;;;;;;4160457;28;20451;-76
2022/11/12 04:22:11;;;;;;;5.83;3.13;;;6.10;99.90;;;;;;4160924;28;20997;-75
2022/11/12 04:26:21;;;;;;;5.10;3.03;;;6.10;99.90;;;;;;4157123;28;20545;-75
2022/11/12 04:26:34;;;;;;;6.13;3.37;;;6.00;99.90;;;;;;4156512;28;20471;-75
2022/11/12 04:28:36;;;;;;;5.57;3.10;;;6.00;99.90;;;;;;4159606;28;20582;-75
2022/11/12 04:30:37;;;;;;;4.23;2.87;;;6.00;99.90;;;;;;4157152;28;20455;-75
2022/11/12 04:32:48;;;;;;;5.80;3.20;;;6.00;99.90;;;;;;4162797;28;20458;-75
2022/11/12 04:34:49;;;;;;;6.27;3.30;;;6.00;99.90;;;;;;4161158;28;20212;-75
2022/11/12 04:36:50;;;;;;;5.37;3.40;;;6.00;99.90;;;;;;4158940;28;20467;-75
2022/11/12 04:38:52;;;;;;;8.00;3.80;;;5.90;99.90;;;;;;4155323;28;20204;-75
2022/11/12 04:45:42;;;;;;;13.00;4.43;;;5.90;99.90;;;;;;4159745;28;20444;-75
2022/11/12 04:47:45;;;;;;;5.70;3.43;;;5.90;99.90;;;;;;4154617;28;20507;-75
2022/11/12 04:49:46;;;;;;;6.93;4.00;;;5.90;99.90;;;;;;4161916;28;20514;-75
2022/11/12 04:52:06;;;;;;;8.37;4.00;;;5.90;99.90;;;;;;4160010;28;20955;-75
2022/11/12 04:54:08;;;;;;;7.30;3.80;;;5.90;99.90;;;;;;4159210;28;20675;-75
2022/11/12 04:56:10;;;;;;;6.17;3.80;;;5.90;99.90;;;;;;4160968;28;20469;-75
2022/11/12 04:58:12;;;;;;;6.50;4.30;;;5.90;99.90;;;;;;4158133;28;21184;-75
2022/11/12 05:00:15;;;;;;;8.30;4.33;;;5.90;99.90;;;;;;4162690;28;20494;-75
2022/11/12 05:02:17;;;;;;;5.77;3.80;;;5.90;99.90;;;;;;4161205;28;20981;-75
2022/11/12 05:04:21;;;;;;;7.10;3.90;;;5.90;99.90;;;;;;4160597;28;20486;-75
2022/11/12 05:08:42;;;;;;;6.37;3.77;;;5.90;99.90;;;;;;4155312;28;20485;-75
2022/11/12 05:10:45;;;;;;;5.80;3.37;;;5.90;99.90;;;;;;4158905;28;21500;-75
2022/11/12 05:12:46;;;;;;;5.37;3.57;;;5.90;99.90;;;;;;4159583;28;20553;-75
2022/11/12 05:14:48;;;;;;;6.13;3.50;;;5.80;99.90;;;;;;4159201;28;20459;-75
2022/11/12 05:16:51;;;;;;;6.27;3.53;;;5.80;99.90;;;;;;4161587;28;20493;-75
2022/11/12 05:18:53;;;;;;;5.40;3.10;;;5.80;99.90;;;;;;4161695;28;20464;-75
2022/11/12 05:20:56;;;;;;;6.10;3.43;;;5.80;99.90;;;;;;4161897;28;20477;-75
2022/11/12 05:22:57;;;;;;;7.90;3.53;;;5.80;99.90;;;;;;4151295;28;20504;-75
2022/11/12 05:24:59;;;;;;;5.70;3.70;;;5.80;99.90;;;;;;4160021;28;20970;-75
2022/11/12 05:27:01;;;;;;;6.97;4.20;;;5.70;99.90;;;;;;4159227;28;20227;-75
2022/11/12 05:29:03;;;;;;;5.27;3.70;;;5.70;99.90;;;;;;4160811;28;21120;-75
2022/11/12 05:31:05;;;;;;;6.40;3.60;;;5.70;99.90;;;;;;4155407;28;20521;-75
2022/11/12 05:33:07;;;;;;;6.07;3.67;;;5.70;99.90;;;;;;4159680;28;20876;-75
2022/11/12 05:35:09;;;;;;;9.70;4.30;;;5.70;99.90;;;;;;4158493;28;20441;-75
2022/11/12 05:37:13;;;;;;;9.00;4.23;;;5.70;99.90;;;;;;4159333;28;20496;-75
2022/11/12 05:39:15;;;;;;;7.63;4.27;;;5.70;99.90;;;;;;4158876;28;20887;-75
2022/11/12 05:41:17;;;;;;;9.67;4.40;;;5.70;99.90;;;;;;4159528;28;20467;-75
2022/11/12 05:43:19;;;;;;;7.03;3.83;;;5.70;99.90;;;;;;4161436;28;20547;-75
2022/11/12 05:45:21;;;;;;;6.57;3.73;;;5.60;99.90;;;;;;4162313;28;21043;-75
2022/11/12 05:47:23;;;;;;;7.27;4.57;;;5.60;99.90;;;;;;4161037;28;20517;-75
2022/11/12 05:49:25;;;;;;;8.73;4.53;;;5.60;99.90;;;;;;4161328;28;20554;-75
2022/11/12 05:51:27;;;;;;;8.23;4.37;;;5.60;99.90;;;;;;4160679;28;20462;-75
2022/11/12 05:53:30;;;;;;;7.50;4.37;;;5.60;99.90;;;;;;4158972;28;20509;-75
2022/11/12 05:55:32;;;;;;;5.70;3.57;;;5.60;99.90;;;;;;4154118;28;20543;-75
2022/11/12 05:57:34;;;;;;;4.83;3.40;;;5.60;99.90;;;;;;4162631;28;20509;-75
2022/11/12 05:59:35;;;;;;;9.47;4.50;;;5.60;99.90;;;;;;4160427;28;20489;-75
2022/11/12 06:01:42;;;;;;;6.83;3.70;;;5.50;99.90;;;;;;4159572;28;20486;-75
2022/11/12 06:03:44;;;;;;;7.30;3.93;;;5.50;99.90;;;;;;4162100;28;20937;-76
2022/11/12 06:05:46;;;;;;;6.97;3.93;;;5.50;99.90;;;;;;4159146;28;20496;-75
2022/11/12 06:07:48;;;;;;;7.30;3.90;;;5.50;99.90;;;;;;4160705;28;20506;-75
2022/11/12 06:09:51;;;;;;;6.33;4.10;;;5.50;99.90;;;;;;4158295;28;21315;-73
2022/11/12 06:11:53;;;;;;;5.83;3.40;;;5.40;99.90;;;;;;4156739;28;20464;-75
2022/11/12 06:13:55;;;;;;;5.70;3.77;;;5.40;99.90;;;;;;4163132;28;20454;-75
2022/11/12 06:15:57;;;;;;;6.77;3.50;;;5.40;99.90;;;;;;4163061;28;20485;-75
2022/11/12 06:17:59;;;;;;;7.67;4.13;;;5.40;99.90;;;;;;4168640;28;20562;-74
2022/11/12 06:20:01;;;;;;;5.77;3.90;;;5.40;99.90;;;;;;4164758;28;20529;-75
2022/11/12 06:22:03;;;;;;;7.17;4.10;;;5.40;99.90;;;;;;4161606;28;20457;-75
2022/11/12 06:24:05;;;;;;;6.77;4.07;;;5.40;99.90;;;;;;4161976;28;20517;-75
2022/11/12 06:26:08;;;;;;;6.40;4.27;;;5.40;99.90;;;;;;4157490;28;20520;-75
2022/11/12 06:28:11;;;;;;;6.10;3.77;;;5.40;99.90;;;;;;4162361;28;20500;-75
2022/11/12 06:30:13;;;;;;;5.77;3.80;;;5.40;99.90;;;;;;4159375;28;20588;-75
2022/11/12 06:32:15;;;;;;;8.07;4.43;;;5.30;99.90;;;;;;4162279;28;20446;-75
2022/11/12 06:34:17;;;;;;;7.87;4.47;;;5.40;99.90;;;;;;4157503;28;20512;-75
2022/11/12 06:36:20;;;;;;;5.97;4.40;;;5.30;99.90;;;;;;4161357;28;20450;-75
2022/11/12 06:38:22;;;;;;;9.53;5.40;;;5.30;99.90;;;;;;4162878;28;20445;-75
2022/11/12 06:40:24;;;;;;;6.53;4.27;;;5.30;99.90;;;;;;4160308;28;20485;-75
2022/11/12 06:42:27;;;;;;;7.97;4.40;;;5.30;99.90;;;;;;4158856;28;20503;-75
2022/11/12 06:44:29;;;;;;;8.43;5.17;;;5.30;99.90;;;;;;4159562;28;20482;-75
2022/11/12 06:46:31;;;;;;;7.67;4.70;;;5.30;99.90;;;;;;4160328;28;21061;-75
2022/11/12 06:48:33;;;;;;;7.47;4.53;;;5.30;99.90;;;;;;4162326;28;20474;-75
2022/11/12 06:50:35;;;;;;;7.70;4.10;;;5.30;99.90;;;;;;4157171;28;20490;-75
2022/11/12 06:52:36;;;;;;;5.73;3.67;;;5.30;99.90;;;;;;4173925;28;20547;-75
2022/11/12 06:54:38;;;;;;;8.23;4.47;;;5.20;99.90;;;;;;4155223;28;20469;-75
2022/11/12 06:56:40;;;;;;;9.23;4.67;;;5.20;99.90;;;;;;4158808;28;21043;-75
2022/11/12 06:58:44;;;;;;;10.50;6.03;;;5.20;99.90;;;;;;4159621;28;20490;-75
2022/11/12 07:00:46;;;;;;;9.00;5.10;;;5.20;99.90;;;;;;4158682;28;20444;-75
2022/11/12 07:02:47;;;;;;;9.43;5.10;;;5.20;99.90;;;;;;4161102;28;20477;-75
2022/11/12 07:04:49;;;;;;;7.43;4.53;;;5.20;99.90;;;;;;4160686;28;20454;-75
2022/11/12 07:06:51;;;;;;;10.17;5.47;;;5.20;99.90;;;;;;4157939;28;20905;-76
2022/11/12 07:08:53;;;;;;;14.37;6.30;;;5.20;99.90;;;;;;4161274;28;20497;-76
2022/11/12 07:10:56;;;;;;;11.93;5.77;;;5.30;99.90;;;;;;4162906;28;20967;-76
2022/11/12 07:12:58;;;;;;;10.60;5.70;;;5.20;99.90;;;;;;4161784;28;20450;-75
2022/11/12 07:15:02;;;;;;;13.70;5.30;;;5.20;99.90;;;;;;4153023;28;20956;-75
2022/11/12 07:17:03;;;;;;;9.93;6.00;;;5.30;99.90;;;;;;4160421;28;20490;-75
2022/11/12 07:19:06;;;;;;;11.37;6.37;;;5.30;99.90;;;;;;4155280;28;20450;-75
2022/11/12 07:21:11;;;;;;;10.60;5.93;;;5.30;99.90;;;;;;4159295;28;20454;-78
2022/11/12 07:23:12;;;;;;;9.77;5.73;;;5.30;99.90;;;;;;4162678;28;20465;-76
2022/11/12 07:25:14;;;;;;;9.00;5.33;;;5.30;99.90;;;;;;4159120;28;20922;-76
2022/11/12 07:27:16;;;;;;;11.30;5.30;;;5.30;99.90;;;;;;4160497;28;20482;-75
2022/11/12 07:29:18;;;;;;;9.03;5.30;;;5.20;99.90;;;;;;4162404;28;20453;-76
2022/11/12 07:31:22;;;;;;;11.43;5.33;;;5.30;99.90;;;;;;4160671;28;20551;-76
2022/11/12 07:33:25;;;;;;;9.03;4.90;;;5.30;99.90;;;;;;4156917;28;21239;-76
2022/11/12 07:35:39;;;;;;;10.20;5.30;;;5.30;99.90;;;;;;4160769;28;20504;-76
2022/11/12 07:41:22;;;;;;;7.33;4.43;;;5.30;99.90;;;;;;4124012;28;21030;-76
2022/11/12 07:44:27;;;;;;;;;;;;;;;;;;;;;
2022/11/12 07:50:29;;;;;;;8.20;4.27;;;5.30;99.90;;;;;;4009665;29;20494;-76
2022/11/12 07:55:43;;;;;;;7.20;4.27;;;5.60;99.90;;;;;;4017348;29;20545;-74
2022/11/12 07:57:59;;;;;;;;;;;;;;;;;;;;;
2022/11/12 08:00:14;;;;;;;10.23;5.90;;;5.40;99.90;;;;;;4117103;28;20487;-74
2022/11/12 08:02:21;;;;;;;10.87;6.33;;;5.70;99.90;;;;;;4132314;28;20474;-75
2022/11/12 08:04:23;;;;;;;12.53;6.30;;;5.40;99.90;;;;;;4153686;28;20524;-74
2022/11/12 08:06:25;;;;;;;10.57;5.80;;;5.40;99.90;;;;;;4160630;28;20893;-75
2022/11/12 08:08:27;;;;;;;11.13;6.40;;;5.40;99.90;;;;;;4160968;28;20588;-74
2022/11/12 08:10:29;;;;;;;14.30;7.27;;;5.40;99.90;;;;;;4160372;28;20513;-74
2022/11/12 08:12:31;;;;;;;14.47;6.87;;;5.50;99.90;;;;;;4160258;28;20557;-75
2022/11/12 08:14:33;;;;;;;9.93;5.93;;;5.50;99.90;;;;;;4159935;28;20542;-75
2022/11/12 08:16:35;;;;;;;12.17;6.30;;;5.50;99.90;;;;;;4159040;28;20518;-74
2022/11/12 08:18:42;;;;;;;13.50;7.63;;;5.60;99.90;;;;;;4160941;28;20446;-73
2022/11/12 08:20:44;;;;;;;13.43;7.43;;;5.60;99.90;;;;;;4158943;28;20449;-74
2022/11/12 08:22:46;;;;;;;16.70;9.30;;;5.70;99.90;;;;;;4153782;28;20469;-74
2022/11/12 08:24:48;;;;;;;16.97;9.23;;;5.70;99.90;;;;;;4156459;28;20462;-72
2022/11/12 08:26:50;;;;;;;18.40;9.53;;;5.80;99.90;;;;;;4159664;28;20467;-72
2022/11/12 08:28:51;;;;;;;15.30;8.53;;;5.80;99.90;;;;;;4154749;28;20498;-73
2022/11/12 08:30:53;;;;;;;15.53;7.53;;;6.10;99.90;;;;;;4160137;28;20493;-73
2022/11/12 08:32:57;;;;;;;13.17;7.30;;;5.90;99.90;;;;;;4150597;28;20507;-74
2022/11/12 08:35:00;;;;;;;18.77;7.80;;;5.90;99.90;;;;;;4157961;28;20542;-73
2022/11/12 08:37:02;;;;;;;13.13;7.27;;;6.00;99.90;;;;;;4148782;28;20516;-73
2022/11/12 08:39:04;;;;;;;14.10;7.37;;;6.00;99.90;;;;;;4158086;28;20456;-73
2022/11/12 08:41:07;;;;;;;10.33;6.13;;;6.10;99.90;;;;;;4159652;28;20550;-73
2022/11/12 08:43:11;;;;;;;11.33;6.97;;;6.20;99.90;;;;;;4156674;28;20496;-75
2022/11/12 08:45:13;;;;;;;13.60;7.00;;;6.20;99.90;;;;;;4160915;28;20551;-74
2022/11/12 08:47:14;;;;;;;13.23;6.60;;;6.30;99.90;;;;;;4159105;28;20916;-73
2022/11/12 08:49:16;;;;;;;13.37;7.50;;;6.40;99.90;;;;;;4159893;28;20542;-73
2022/11/12 08:51:20;;;;;;;13.83;6.57;;;6.40;99.90;;;;;;4157849;28;20479;-73
2022/11/12 08:53:23;;;;;;;13.67;7.40;;;6.50;99.90;;;;;;4159081;28;20458;-73
2022/11/12 08:55:28;;;;;;;14.67;7.70;;;6.60;99.90;;;;;;4156703;28;20506;-74
2022/11/12 08:57:30;;;;;;;14.53;7.30;;;6.70;99.90;;;;;;4158647;28;20476;-74
2022/11/12 08:59:31;;;;;;;15.33;7.07;;;6.80;99.90;;;;;;4158500;28;20824;-72
2022/11/12 09:01:33;;;;;;;11.30;7.10;;;6.90;99.90;;;;;;4158915;28;20496;-74
2022/11/12 09:03:35;;;;;;;12.07;6.73;;;7.00;99.90;;;;;;4159134;28;20903;-74
2022/11/12 09:05:37;;;;;;;13.10;7.53;;;7.10;99.90;;;;;;4157256;28;20461;-74
2022/11/12 09:07:40;;;;;;;11.07;7.17;;;7.10;99.90;;;;;;4161023;28;20595;-73
2022/11/12 09:09:42;;;;;;;13.10;6.57;;;7.30;99.90;;;;;;4160551;28;20551;-77
2022/11/12 09:11:44;;;;;;;14.80;6.80;;;7.30;99.90;;;;;;4157322;28;20564;-74
2022/11/12 09:13:46;;;;;;;13.57;7.53;;;7.40;99.90;;;;;;4158999;28;20492;-74
2022/11/12 09:15:48;;;;;;;10.37;7.17;;;7.50;99.90;;;;;;4158947;28;20462;-74
2022/11/12 09:17:55;;;;;;;13.10;6.90;;;7.50;99.90;;;;;;4159683;28;20500;-74
2022/11/12 09:19:56;;;;;;;10.17;6.50;;;7.60;99.90;;;;;;4160097;28;20496;-75
2022/11/12 09:21:58;;;;;;;12.20;6.60;;;7.70;99.90;;;;;;4159644;28;20503;-74
2022/11/12 09:24:02;;;;;;;9.40;5.73;;;7.80;99.90;;;;;;4157909;28;20504;-75
2022/11/12 09:26:05;;;;;;;11.57;6.63;;;7.90;99.90;;;;;;4158991;28;21289;-73
2022/11/12 09:28:09;;;;;;;8.13;5.87;;;8.00;99.90;;;;;;4160437;28;20520;-75
2022/11/12 09:30:11;;;;;;;10.57;6.50;;;8.10;99.90;;;;;;4157061;28;20487;-75
2022/11/12 09:32:13;;;;;;;8.47;5.30;;;8.20;99.90;;;;;;4158166;28;20463;-75
2022/11/12 09:34:15;;;;;;;8.10;5.17;;;8.30;99.90;;;;;;4157732;28;21025;-73
2022/11/12 09:36:17;;;;;;;11.20;6.73;;;8.40;99.90;;;;;;4158654;28;20961;-74
2022/11/12 09:38:21;;;;;;;10.87;6.07;;;8.50;99.90;;;;;;4159173;28;20453;-74
2022/11/12 09:40:34;;;;;;;9.40;6.00;;;8.60;99.90;;;;;;4156936;28;20466;-74
2022/11/12 09:42:37;;;;;;;9.13;5.70;;;8.70;99.90;;;;;;4157044;28;20461;-74
2022/11/12 09:44:42;;;;;;;9.47;5.57;;;8.80;99.90;;;;;;4157586;28;20454;-74
2022/11/12 09:46:48;;;;;;;9.03;5.13;;;8.90;99.90;;;;;;4158944;28;20590;-74
2022/11/12 09:48:57;;;;;;;7.63;4.73;;;9.00;99.90;;;;;;4161913;28;20540;-75
2022/11/12 09:51:04;;;;;;;8.60;5.47;;;9.10;99.90;;;;;;4162350;28;20250;-74
2022/11/12 09:53:12;;;;;;;8.77;5.03;;;9.20;99.90;;;;;;4159778;28;20713;-75
2022/11/12 09:55:29;;;;;;;7.93;4.87;;;9.30;99.90;;;;;;4161493;28;20660;-75
2022/11/12 09:57:32;;;;;;;7.87;4.90;;;9.40;99.90;;;;;;4162953;28;20229;-74
2022/11/12 09:59:39;;;;;;;8.13;4.57;;;9.50;99.90;;;;;;4161210;28;20211;-74
2022/11/12 10:01:49;;;;;;;5.67;3.83;;;9.60;99.90;;;;;;4160986;28;20254;-73
2022/11/12 10:04:04;;;;;;;6.73;4.47;;;9.70;99.90;;;;;;4161948;28;20206;-74
2022/11/12 10:06:12;;;;;;;7.53;4.30;;;9.80;99.90;;;;;;4160068;28;20281;-74
2022/11/12 10:08:33;;;;;;;6.30;4.27;;;9.90;99.90;;;;;;4162686;28;20227;-75
2022/11/12 10:10:44;;;;;;;7.83;4.50;;;10.00;99.90;;;;;;4162426;28;20596;-74
2022/11/12 10:13:02;;;;;;;6.70;4.60;;;10.10;99.90;;;;;;4160818;28;20696;-75
2022/11/12 10:18:09;;;;;;;6.33;4.10;;;10.30;99.90;;;;;;4164588;28;20247;-73
2022/11/12 10:20:18;;;;;;;6.10;4.27;;;10.40;99.90;;;;;;4163529;28;20240;-74
2022/11/12 10:22:34;;;;;;;6.00;4.20;;;10.50;99.90;;;;;;4163026;28;20229;-74
2022/11/12 10:24:38;;;;;;;6.70;4.40;;;10.50;99.90;;;;;;4163505;28;20204;-74
2022/11/12 10:26:42;;;;;;;5.23;3.80;;;10.60;99.90;;;;;;4162276;28;20283;-74
2022/11/12 10:28:47;;;;;;;6.67;4.40;;;10.70;99.90;;;;;;4161916;28;20245;-74
2022/11/12 10:30:49;;;;;;;6.93;4.27;;;10.80;99.90;;;;;;4163025;28;20225;-75
2022/11/12 10:32:52;;;;;;;6.23;3.90;;;10.90;99.90;;;;;;4163238;28;20296;-74
2022/11/12 10:34:54;;;;;;;5.67;3.70;;;10.90;99.90;;;;;;4161836;28;20249;-74
2022/11/12 10:37:01;;;;;;;6.97;3.93;;;11.00;99.90;;;;;;4162849;28;20240;-73
2022/11/12 10:39:03;;;;;;;4.67;3.47;;;11.10;99.90;;;;;;4160214;28;20234;-75
2022/11/12 10:41:20;;;;;;;6.93;4.30;;;11.20;99.90;;;;;;4163359;28;20210;-74
2022/11/12 10:43:25;;;;;;;5.67;3.57;;;11.30;99.90;;;;;;4161695;28;20586;-74
2022/11/12 10:45:27;;;;;;;6.93;4.17;;;11.40;99.90;;;;;;4161182;28;20724;-72
2022/11/12 10:47:37;;;;;;;6.33;4.30;;;11.40;99.90;;;;;;4163795;28;20254;-72
2022/11/12 10:49:39;;;;;;;5.73;3.83;;;11.50;99.90;;;;;;4161426;28;20276;-73
2022/11/12 10:51:41;;;;;;;5.77;4.20;;;11.60;99.90;;;;;;4160169;28;20253;-73
2022/11/12 10:53:43;;;;;;;9.07;4.13;;;11.70;99.90;;;;;;4162734;28;20596;-73
2022/11/12 10:55:57;;;;;;;6.47;4.30;;;11.70;99.90;;;;;;4159110;28;20238;-73
2022/11/12 10:58:20;;;;;;;5.87;3.93;;;11.90;99.90;;;;;;4161343;28;20792;-73
2022/11/12 11:00:25;;;;;;;6.23;4.23;;;11.90;99.90;;;;;;4156110;28;21203;-73
2022/11/12 11:02:27;;;;;;;8.03;3.80;;;12.00;99.90;;;;;;4160520;28;20203;-73
2022/11/12 11:04:32;;;;;;;5.93;3.90;;;12.20;99.90;;;;;;4163033;28;20241;-72
2022/11/12 11:06:34;;;;;;;5.90;4.00;;;12.20;99.90;;;;;;4159301;28;20242;-73
2022/11/12 11:08:41;;;;;;;6.30;4.03;;;12.30;99.90;;;;;;4162626;28;20260;-71
2022/11/12 11:10:43;;;;;;;7.93;4.40;;;12.40;99.90;;;;;;4161619;28;20226;-71
2022/11/12 11:12:45;;;;;;;7.27;4.10;;;12.60;99.90;;;;;;4161449;28;20285;-71
2022/11/12 11:15:04;;;;;;;6.27;3.90;;;12.60;99.90;;;;;;4161892;28;20226;-72
2022/11/12 11:17:17;;;;;;;5.00;3.60;;;12.80;99.90;;;;;;4160923;28;20249;-71
2022/11/12 11:19:20;;;;;;;5.07;3.70;;;12.90;99.90;;;;;;4161993;28;20234;-70
2022/11/12 11:21:36;;;;;;;6.57;3.90;;;12.90;99.90;;;;;;4161849;28;20278;-72